Ember Weaver
| Nome | Ember Weaver |
|---|---|
| Tipo | Creatura: ragno |
| Descrizione | Raggiungere (Questa creatura può bloccare creature con volare.) Finché controlli un permanente rosso, il Tessitore di Braci ottiene +1/+0 e ha attacco improvviso. |
| Gusto | „Jede Nacht entwirrt sich die Sonne und wird fortgeblasen. Jeden Tag weben die Spinnen eine neue in den Himmel." —Sonnensamer-Legende |
| Artista | Steve Prescott |
| Espansione | Booster misterioso #1197 |
| Carta da parati | |
| Immagine |
Di Ember Weaver
Ember Weaver, Creatura: ragno, progettato da Steve Prescott rilasciato per la prima volta febbraio 2009 in redazione Conflux ed è stato stampato esattamente in 3 forme diverse. Attualmente viene venduto al prezzo più basso di € 0,31.
Ember Weaver sarebbe un'ottima aggiunta a un mazzo verde-rosso che si concentra su strategie basate sulle creature con una spruzzata di rosso come supporto. La sua capacità di ottenere un potenziamento di potere e un attacco improvviso quando controlli un permanente rosso può renderlo un formidabile bloccante e attaccante. Anche se potrebbero essere disponibili carte più potenti, la versatilità e la sinergia di Ember Weaver con un mazzo rosso-verde lo rendono una solida scelta da includere, specialmente nei mazzi midrange o aggro dove può esercitare pressione e aiutare a controllare il tabellone.
Rugole
01/02/2009
As long as at least one permanent you control is the specified color, the ability will “work” and grant this creature the bonus. Otherwise, it won’t have the bonus.
Dove comprare
![]() | Card Kingdom | 128 uni.
| € 0,28 | visita il negozio |
![]() | Ebay.com | visita il negozio | ||
![]() | Cardkingdom | visita il negozio | ||
![]() | Printing proxies | $ 0.75 | visita il negozio |
*Questo sito contiene link di affiliazione per i quali potremmo ricevere un compenso
Gruppo
avviso di prezzo ?
Avvisami quando arriva il prezzo
Storico dell'andamento dei prezzi

Storico dei prezzi
| Data | Prezzo minimo | Prezzo medio | Decks |
|---|---|---|---|
| 2024-09-05 | 0.03 EUR | 0.17 EUR | 0 |
| 2024-09-09 | 0.03 EUR | 0.17 EUR | 0 |
| 2024-09-16 | 0.03 EUR | 0.17 EUR | 0 |
| 2024-09-23 | 0.03 EUR | 0.17 EUR | 0 |
| 2024-09-30 | 0.03 EUR | 0.16 EUR | 0 |
| 2024-10-07 | 0.03 EUR | 0.17 EUR | 0 |
| 2024-10-14 | 0.03 EUR | 0.17 EUR | 0 |
| 2024-10-21 | 0.03 EUR | 0.17 EUR | 0 |
| 2024-10-28 | 0.01 EUR | 0.17 EUR | 0 |
| 2024-11-06 | 0.03 EUR | 0.17 EUR | 0 |
| 2024-11-11 | 0.02 EUR | 0.17 EUR | 0 |
| 2024-11-18 | 0.02 EUR | 0.17 EUR | 0 |
| 2024-11-25 | 0.03 EUR | 0.17 EUR | 0 |
| 2024-12-02 | 0.03 EUR | 0.18 EUR | 0 |
| 2024-12-09 | 0.03 EUR | 0.18 EUR | 0 |
| 2024-12-19 | 0.03 EUR | 0.18 EUR | 0 |
| 2024-12-23 | 0.03 EUR | 0.18 EUR | 0 |
| 2024-12-30 | 0.03 EUR | 0.18 EUR | 0 |
| 2025-01-01 | 0.03 EUR | 0.18 EUR | 0 |
| 2025-01-06 | 0.03 EUR | 0.18 EUR | 0 |
| 2025-01-13 | 0.03 EUR | 0.18 EUR | 0 |
| 2025-01-20 | 0.03 EUR | 0.18 EUR | 0 |
| 2025-01-27 | 0.03 EUR | 0.18 EUR | 0 |
| 2025-02-03 | 0.03 EUR | 0.18 EUR | 0 |
| 2025-02-10 | 0.03 EUR | 0.18 EUR | 0 |
| 2025-02-18 | 0.02 EUR | 0.21 EUR | 0 |
| 2025-04-27 | 0.04 EUR | 0.22 EUR | 0 |
| 2025-04-28 | 0.02 EUR | 0.21 EUR | 0 |
| 2025-05-06 | 0.01 EUR | 0.21 EUR | 0 |
| 2025-05-12 | 0.04 EUR | 0.22 EUR | 0 |
| 2025-05-19 | 0.04 EUR | 0.24 EUR | 0 |
| 2025-05-28 | 0.03 EUR | 0.24 EUR | 0 |
| 2025-06-03 | 0.02 EUR | 0.21 EUR | 0 |
| 2025-06-10 | 0.02 EUR | 0.21 EUR | 0 |
| 2025-06-17 | 0.02 EUR | 0.21 EUR | 0 |
| 2025-06-23 | 0.04 EUR | 0.25 EUR | 0 |
| 2025-07-01 | 0.03 EUR | 0.21 EUR | 0 |
| 2025-07-08 | 0.02 EUR | 0.21 EUR | 0 |
| 2025-07-15 | 0.02 EUR | 0.21 EUR | 0 |
| 2025-07-22 | 0.02 EUR | 0.21 EUR | 0 |
| 2025-07-29 | 0.03 EUR | 0.25 EUR | 0 |
| 2025-08-05 | 0.03 EUR | 0.25 EUR | 0 |
| 2025-08-12 | 0.02 EUR | 0.21 EUR | 0 |
| 2025-08-18 | 0.02 EUR | 0.21 EUR | 0 |
| 2025-08-25 | 0.05 EUR | 0.25 EUR | 0 |
| 2025-09-02 | 0.03 EUR | 0.25 EUR | 0 |
| 2025-09-09 | 0.03 EUR | 0.25 EUR | 0 |
| 2025-09-15 | 0.26 EUR | 0.30 EUR | 0 |
| 2025-09-23 | 0.31 EUR | 0.32 EUR | 0 |
| 2025-09-29 | 0.32 EUR | 0.32 EUR | 0 |
| 2025-10-06 | 0.32 EUR | 0.32 EUR | 0 |
| 2025-10-13 | 0.32 EUR | 0.32 EUR | 0 |
| 2025-10-20 | 0.32 EUR | 0.32 EUR | 0 |
| 2025-10-27 | 0.32 EUR | 0.32 EUR | 0 |
| 2025-11-03 | 0.32 EUR | 0.32 EUR | 0 |
| 2025-11-10 | 0.31 EUR | 0.32 EUR | 0 |
| 2025-11-18 | 0.31 EUR | 0.32 EUR | 0 |
| 2025-11-24 | 0.32 EUR | 0.32 EUR | 0 |
| 2025-12-03 | 0.32 EUR | 0.32 EUR | 0 |
| 2025-12-08 | 0.32 EUR | 0.32 EUR | 0 |
| 2025-12-15 | 0.32 EUR | 0.32 EUR | 0 |
| 2025-12-22 | 0.33 EUR | 0.33 EUR | 0 |
| 2025-12-29 | 0.33 EUR | 0.33 EUR | 0 |
| 2026-01-01 | 0.33 EUR | 0.33 EUR | 0 |
| 2026-01-05 | 0.32 EUR | 0.32 EUR | 0 |
| 2026-01-13 | 0.32 EUR | 0.32 EUR | 0 |
| 2026-01-20 | 0.32 EUR | 0.32 EUR | 0 |
| 2026-01-26 | 0.31 EUR | 0.31 EUR | 0 |
| 2026-02-02 | 0.31 EUR | 0.31 EUR | 0 |
| 2026-02-09 | 0.31 EUR | 0.31 EUR | 0 |
| 2026-02-16 | 0.31 EUR | 0.31 EUR | 0 |
| 2026-02-23 | 0.31 EUR | 0.31 EUR | 0 |
| 2026-03-02 | 0.31 EUR | 0.31 EUR | 0 |
| 2026-03-10 | 0.31 EUR | 0.31 EUR | 0 |
| 2026-03-16 | 0.31 EUR | 0.31 EUR | 0 |
| 2026-04-02 | 0.31 EUR | 0.31 EUR | 0 |
| 2026-04-07 | 0.30 EUR | 0.30 EUR | 0 |
| 2026-04-14 | 0.30 EUR | 0.30 EUR | 0 |
| 2026-04-23 | 0.29 EUR | 0.29 EUR | 0 |
| 2026-04-30 | 0.29 EUR | 0.30 EUR | 0 |
| 2026-05-05 | 0.29 EUR | 0.29 EUR | 0 |
| 2026-05-14 | 0.29 EUR | 0.29 EUR | 0 |
| 2026-05-20 | 0.30 EUR | 0.30 EUR | 0 |
| 2026-05-25 | 0.30 EUR | 0.30 EUR | 0 |
| 2026-06-01 | 0.30 EUR | 0.30 EUR | 0 |
| 2026-06-08 | 0.31 EUR | 0.31 EUR | 0 |
| 2026-06-15 | 0.30 EUR | 0.30 EUR | 0 |
| 2026-06-23 | 0.31 EUR | 0.31 EUR | 0 |
| 2026-06-29 | 0.31 EUR | 0.31 EUR | 0 |
| 2026-07-06 | 0.31 EUR | 0.31 EUR | 0 |
| 2026-07-13 | 0.30 EUR | 0.30 EUR | 0 |
| 2026-07-20 | 0.30 EUR | 0.30 EUR | 0 |
| 2026-07-27 | 0.30 EUR | 0.30 EUR | 0 |
| 2026-08-03 | 0.30 EUR | 0.30 EUR | 0 |
| 2026-08-10 | 0.30 EUR | 0.30 EUR | 0 |
| 2026-08-17 | 0.31 EUR | 0.31 EUR | 0 |
| 2026-08-24 | 0.31 EUR | 0.31 EUR | 0 |
| 2026-09-01 | 0.31 EUR | 0.31 EUR | 0 |
Domande frequenti su Ember Weaver
Che tipo di carta è Ember Weaver?
Ember Weaver è Creatura: ragno carta inserita Magic: the Gathering MTG.
Qual è l'effetto della carta Ember Weaver?
Raggiungere (Questa creatura può bloccare creature con volare.) Finché controlli un permanente rosso, il Tessitore di Braci ottiene +1/+0 e ha attacco improvviso.
Qual è il prezzo della carta Ember Weaver?
Ember Weaver attualmente inizia alle € 0,31. Visualizza i prezzi in tempo reale di più venditori nella sezione Dove acquistare sopra.
Qual è il set originale della carta Ember Weaver?
Ember Weaver è stato rilasciato per la prima volta nel set Conflux, illustrato da Steve Prescott.
Qual è la legalità della carta Ember Weaver?
La legalità dipende dal formato del torneo: Ember Weaver può essere legale in alcuni formati e vietato o limitato in altri. Consulta la ripartizione completa per formato nella sezione Legalità sopra.





Reazioni
0
0 Commenti
Diventa il primo a commentare